createdAt,value
2017-05-01T00:00:03.433Z,0.00
2017-05-01T00:01:04.724Z,0.00
2017-05-01T00:02:06.009Z,0.00
2017-05-01T00:03:07.293Z,0.00
2017-05-01T00:04:08.585Z,0.00
2017-05-01T00:05:09.863Z,0.00
2017-05-01T00:06:11.147Z,0.00
2017-05-01T00:07:12.433Z,0.00
2017-05-01T00:08:13.718Z,0.00
2017-05-01T00:09:15.001Z,0.00
2017-05-01T00:10:16.285Z,0.00
2017-05-01T00:11:17.570Z,0.00
2017-05-01T00:12:18.855Z,0.00
2017-05-01T00:13:20.141Z,0.00
2017-05-01T00:14:21.423Z,0.00
2017-05-01T00:15:22.709Z,0.00
2017-05-01T00:16:23.992Z,0.00
2017-05-01T00:17:25.277Z,0.00
2017-05-01T00:18:26.569Z,0.00
2017-05-01T00:19:27.850Z,0.00
2017-05-01T00:20:29.134Z,0.00
2017-05-01T00:21:30.420Z,0.00
2017-05-01T00:22:31.704Z,0.00
2017-05-01T00:23:32.989Z,0.00
2017-05-01T00:24:34.273Z,0.00
2017-05-01T00:25:35.557Z,0.00
2017-05-01T00:26:36.842Z,0.00
2017-05-01T00:27:38.127Z,0.00
2017-05-01T00:28:39.411Z,0.00
2017-05-01T00:29:40.696Z,0.00
2017-05-01T00:30:41.982Z,0.00
2017-05-01T00:31:43.266Z,0.00
2017-05-01T00:32:44.552Z,0.00
2017-05-01T00:33:45.834Z,0.00
2017-05-01T00:34:47.119Z,0.00
2017-05-01T00:35:48.402Z,0.00
2017-05-01T00:36:49.688Z,0.00
2017-05-01T00:37:50.972Z,0.00
2017-05-01T00:38:52.256Z,0.00
2017-05-01T00:39:53.539Z,0.00
2017-05-01T00:40:54.825Z,0.00
2017-05-01T00:41:56.109Z,0.00
2017-05-01T00:42:57.393Z,0.00
2017-05-01T00:43:58.678Z,0.00
2017-05-01T00:44:59.965Z,0.00
2017-05-01T00:46:01.248Z,0.00
2017-05-01T00:47:02.533Z,0.00
2017-05-01T00:48:03.817Z,0.00
2017-05-01T00:49:05.103Z,0.00
2017-05-01T00:50:06.385Z,0.00
2017-05-01T00:51:07.673Z,0.00
2017-05-01T00:52:08.955Z,0.00
2017-05-01T00:53:10.238Z,0.00
2017-05-01T00:54:11.524Z,0.00
2017-05-01T00:55:12.810Z,0.00
2017-05-01T00:56:14.094Z,0.00
2017-05-01T00:57:15.379Z,0.00
2017-05-01T00:58:16.663Z,0.00
2017-05-01T00:59:17.949Z,0.00
2017-05-01T01:00:19.240Z,0.00
2017-05-01T01:01:20.524Z,0.00
2017-05-01T01:02:21.806Z,0.00
2017-05-01T01:03:23.094Z,0.00
2017-05-01T01:04:24.376Z,0.00
2017-05-01T01:05:25.660Z,0.00
2017-05-01T01:06:26.950Z,0.00
2017-05-01T01:07:28.234Z,0.00
2017-05-01T01:08:29.520Z,0.00
2017-05-01T01:09:30.803Z,0.00
2017-05-01T01:10:32.085Z,0.00
2017-05-01T01:11:33.372Z,0.00
2017-05-01T01:12:34.656Z,0.00
2017-05-01T01:13:35.943Z,0.00
2017-05-01T01:14:37.224Z,0.00
2017-05-01T01:15:38.511Z,0.00
2017-05-01T01:16:39.795Z,0.00
2017-05-01T01:17:41.082Z,0.00
2017-05-01T01:18:42.367Z,0.00
2017-05-01T01:19:43.651Z,0.00
2017-05-01T01:20:44.937Z,0.00
2017-05-01T01:21:46.220Z,0.00
2017-05-01T01:22:47.507Z,0.00
2017-05-01T01:23:48.791Z,0.00
2017-05-01T01:24:50.075Z,0.00
2017-05-01T01:25:51.358Z,0.00
2017-05-01T01:26:52.643Z,0.00
2017-05-01T01:27:53.930Z,0.00
2017-05-01T01:28:55.214Z,0.00
2017-05-01T01:29:56.496Z,0.00
2017-05-01T01:30:57.806Z,0.00
2017-05-01T01:31:59.065Z,0.00
2017-05-01T01:33:00.350Z,0.00
2017-05-01T01:34:01.637Z,0.00
2017-05-01T01:35:02.920Z,0.00
2017-05-01T01:36:04.205Z,0.00
2017-05-01T01:37:05.490Z,0.00
2017-05-01T01:38:06.773Z,0.00
2017-05-01T01:39:08.057Z,0.00
2017-05-01T01:40:09.341Z,0.00
2017-05-01T01:41:10.625Z,0.00
2017-05-01T01:42:11.909Z,0.00
2017-05-01T01:43:13.194Z,0.00
2017-05-01T01:44:14.476Z,0.00
2017-05-01T01:45:15.764Z,0.00
2017-05-01T01:46:17.050Z,0.00
2017-05-01T01:47:18.337Z,0.00
2017-05-01T01:48:19.617Z,0.00
2017-05-01T01:49:20.901Z,0.00
2017-05-01T01:50:22.187Z,0.00
2017-05-01T01:51:23.471Z,0.00
2017-05-01T01:52:24.756Z,0.00
2017-05-01T01:53:26.039Z,0.00
2017-05-01T01:54:27.321Z,0.00
2017-05-01T01:55:28.608Z,0.00
2017-05-01T01:56:29.893Z,0.00
2017-05-01T01:57:31.181Z,0.00
2017-05-01T01:58:32.466Z,0.00
2017-05-01T01:59:33.750Z,0.00
2017-05-01T02:00:35.034Z,0.00
2017-05-01T02:01:36.319Z,0.00
2017-05-01T02:02:37.604Z,0.00
2017-05-01T02:03:38.890Z,0.00
2017-05-01T02:04:40.174Z,0.00
2017-05-01T02:05:41.458Z,0.00
2017-05-01T02:06:42.743Z,0.00
2017-05-01T02:07:44.031Z,0.00
2017-05-01T02:08:45.313Z,0.00
2017-05-01T02:09:46.598Z,0.00
2017-05-01T02:10:47.881Z,0.00
2017-05-01T02:11:49.165Z,0.00
2017-05-01T02:12:50.451Z,0.00
2017-05-01T02:13:51.735Z,0.00
2017-05-01T02:14:53.020Z,0.00
2017-05-01T02:15:54.306Z,0.00
2017-05-01T02:16:55.589Z,0.00
2017-05-01T02:17:56.875Z,0.00
2017-05-01T02:18:58.158Z,0.00
2017-05-01T02:19:59.441Z,0.00
2017-05-01T02:21:00.729Z,0.00
2017-05-01T02:22:02.013Z,0.00
2017-05-01T02:23:03.296Z,0.00
2017-05-01T02:24:04.577Z,0.00
2017-05-01T02:25:05.863Z,0.00
2017-05-01T02:26:07.150Z,0.00
2017-05-01T02:27:08.435Z,0.00
2017-05-01T02:28:09.719Z,0.00
2017-05-01T02:29:11.003Z,0.00
2017-05-01T02:30:12.291Z,0.00
2017-05-01T02:31:13.573Z,0.00
2017-05-01T02:32:14.858Z,0.00
2017-05-01T02:33:16.141Z,0.00
2017-05-01T02:34:17.425Z,0.00
2017-05-01T02:35:18.711Z,0.00
2017-05-01T02:36:20.001Z,0.00
2017-05-01T02:37:21.288Z,0.00
2017-05-01T02:38:22.572Z,0.00
2017-05-01T02:39:23.856Z,0.00
2017-05-01T02:40:25.140Z,0.00
2017-05-01T02:41:26.424Z,0.00
2017-05-01T02:42:27.710Z,0.00
2017-05-01T02:43:28.994Z,0.00
2017-05-01T02:44:30.276Z,0.00
2017-05-01T02:45:31.561Z,0.00
2017-05-01T02:46:32.845Z,0.00
2017-05-01T02:47:34.130Z,0.00
2017-05-01T02:48:35.414Z,0.00
2017-05-01T02:49:36.698Z,0.00
2017-05-01T02:50:37.980Z,0.00
2017-05-01T02:51:39.268Z,0.00
2017-05-01T02:52:40.554Z,0.00
2017-05-01T02:53:41.840Z,0.00
2017-05-01T02:54:43.121Z,0.00
2017-05-01T02:55:44.407Z,0.00
2017-05-01T02:56:45.691Z,0.00
2017-05-01T02:57:46.977Z,0.00
2017-05-01T02:58:48.259Z,0.00
2017-05-01T02:59:49.543Z,0.00
2017-05-01T03:00:50.829Z,0.00
2017-05-01T03:01:52.114Z,0.00
2017-05-01T03:02:53.430Z,0.00
2017-05-01T03:03:54.683Z,0.00
2017-05-01T03:04:55.966Z,0.00
2017-05-01T03:05:57.254Z,0.00
2017-05-01T03:06:58.539Z,0.00
2017-05-01T03:07:59.824Z,0.00
2017-05-01T03:09:01.108Z,0.00
2017-05-01T03:10:02.405Z,0.00
2017-05-01T03:11:03.690Z,0.00
2017-05-01T03:12:04.976Z,0.00
2017-05-01T03:13:06.260Z,0.00
2017-05-01T03:14:07.545Z,0.00
2017-05-01T03:15:08.828Z,0.00
2017-05-01T03:16:10.114Z,0.00
2017-05-01T03:17:11.399Z,0.00
2017-05-01T03:18:12.682Z,0.00
2017-05-01T03:19:13.966Z,0.00
2017-05-01T03:20:15.250Z,0.00
2017-05-01T03:21:16.550Z,0.00
2017-05-01T03:22:17.824Z,0.00
2017-05-01T03:23:19.108Z,0.00
2017-05-01T03:24:20.387Z,0.00
2017-05-01T03:25:21.672Z,0.00
2017-05-01T03:26:22.958Z,0.00
2017-05-01T03:27:24.242Z,0.00
2017-05-01T03:28:25.525Z,0.00
2017-05-01T03:29:26.812Z,0.00
2017-05-01T03:30:28.097Z,0.00
2017-05-01T03:31:29.382Z,0.00
2017-05-01T03:32:30.665Z,0.00
2017-05-01T03:33:31.950Z,0.00
2017-05-01T03:34:33.233Z,0.00
2017-05-01T03:35:34.518Z,0.00
2017-05-01T03:36:35.803Z,0.00
2017-05-01T03:37:37.089Z,0.00
2017-05-01T03:38:38.371Z,0.00
2017-05-01T03:39:39.655Z,0.00
2017-05-01T03:40:40.939Z,0.00
2017-05-01T03:41:42.223Z,0.00
2017-05-01T03:42:43.508Z,0.00
2017-05-01T03:43:44.793Z,0.00
2017-05-01T03:44:46.080Z,0.00
2017-05-01T03:45:47.362Z,0.00
2017-05-01T03:46:48.644Z,0.00
2017-05-01T03:47:49.928Z,0.00
2017-05-01T03:48:51.214Z,0.00
2017-05-01T03:49:52.501Z,0.00
2017-05-01T03:50:53.784Z,4.00
2017-05-01T03:51:55.069Z,4.00
2017-05-01T03:52:56.355Z,4.00
2017-05-01T03:53:57.640Z,4.00
2017-05-01T03:54:58.923Z,0.00
2017-05-01T03:56:00.209Z,0.00
2017-05-01T03:57:01.490Z,4.00
2017-05-01T03:58:02.776Z,4.00
2017-05-01T03:59:04.056Z,4.00
2017-05-01T04:00:05.347Z,4.00
2017-05-01T04:01:06.631Z,4.00
2017-05-01T04:02:07.911Z,4.00
2017-05-01T04:03:09.219Z,4.00
2017-05-01T04:04:10.500Z,8.00
2017-05-01T04:05:11.786Z,8.00
2017-05-01T04:06:13.070Z,8.00
2017-05-01T04:07:14.353Z,8.00
2017-05-01T04:08:15.649Z,4.00
2017-05-01T04:09:16.924Z,8.00
2017-05-01T04:10:18.208Z,8.00
2017-05-01T04:11:19.493Z,8.00
2017-05-01T04:12:20.796Z,8.00
2017-05-01T04:13:22.099Z,8.00
2017-05-01T04:14:23.386Z,12.00
2017-05-01T04:15:24.670Z,12.00
2017-05-01T04:16:25.957Z,16.00
2017-05-01T04:17:27.242Z,16.00
2017-05-01T04:18:28.533Z,16.00
2017-05-01T04:19:29.817Z,16.00
2017-05-01T04:20:31.104Z,20.00
2017-05-01T04:21:32.387Z,20.00
2017-05-01T04:22:33.671Z,20.00
2017-05-01T04:23:34.960Z,20.00
2017-05-01T04:24:36.255Z,24.00
2017-05-01T04:25:37.541Z,28.00
2017-05-01T04:26:38.827Z,28.00
2017-05-01T04:27:40.113Z,32.00
2017-05-01T04:28:41.401Z,28.00
2017-05-01T04:29:42.688Z,36.00
2017-05-01T04:30:43.973Z,36.00
2017-05-01T04:31:45.257Z,36.00
2017-05-01T04:32:46.542Z,40.00
2017-05-01T04:33:47.829Z,44.00
2017-05-01T04:34:49.118Z,44.00
2017-05-01T04:35:50.402Z,48.00
2017-05-01T04:36:51.689Z,48.00
2017-05-01T04:37:52.979Z,48.00
2017-05-01T04:38:54.262Z,48.00
2017-05-01T04:39:55.548Z,52.00
2017-05-01T04:40:56.833Z,52.00
2017-05-01T04:41:58.118Z,52.00
2017-05-01T04:42:59.405Z,56.00
2017-05-01T04:44:00.689Z,56.00
2017-05-01T04:45:01.976Z,64.00
2017-05-01T04:46:03.259Z,64.00
2017-05-01T04:47:04.546Z,68.00
2017-05-01T04:48:05.831Z,72.00
2017-05-01T04:49:07.119Z,72.00
2017-05-01T04:50:08.403Z,72.00
2017-05-01T04:51:09.689Z,76.00
2017-05-01T04:52:10.974Z,76.00
2017-05-01T04:53:12.259Z,76.00
2017-05-01T04:54:13.547Z,76.00
2017-05-01T04:55:14.834Z,76.00
2017-05-01T04:56:16.120Z,80.00
2017-05-01T04:57:17.405Z,84.00
2017-05-01T04:58:18.697Z,92.00
2017-05-01T04:59:19.976Z,96.00
2017-05-01T05:00:21.262Z,96.00
2017-05-01T05:01:22.549Z,108.00
2017-05-01T05:02:23.836Z,116.00
2017-05-01T05:03:25.124Z,120.00
2017-05-01T05:04:26.414Z,128.00
2017-05-01T05:05:27.701Z,136.00
2017-05-01T05:06:28.990Z,144.00
2017-05-01T05:07:30.279Z,148.00
2017-05-01T05:08:31.568Z,152.00
2017-05-01T05:09:32.855Z,160.00
2017-05-01T05:10:34.143Z,168.00
2017-05-01T05:11:35.430Z,176.00
2017-05-01T05:12:36.718Z,188.00
2017-05-01T05:13:38.005Z,192.00
2017-05-01T05:14:39.291Z,200.00
2017-05-01T05:15:40.581Z,212.00
2017-05-01T05:16:41.869Z,216.00
2017-05-01T05:17:43.159Z,220.00
2017-05-01T05:18:44.447Z,228.00
2017-05-01T05:19:45.735Z,228.00
2017-05-01T05:20:47.023Z,224.00
2017-05-01T05:21:48.310Z,220.00
2017-05-01T05:22:49.600Z,220.00
2017-05-01T05:23:50.889Z,220.00
2017-05-01T05:24:52.177Z,224.00
2017-05-01T05:25:53.466Z,232.00
2017-05-01T05:26:54.753Z,240.00
2017-05-01T05:27:56.042Z,244.00
2017-05-01T05:28:57.336Z,248.00
2017-05-01T05:29:58.620Z,252.00
2017-05-01T05:30:59.905Z,256.00
2017-05-01T05:32:01.192Z,256.00
2017-05-01T05:33:02.482Z,264.00
2017-05-01T05:34:03.796Z,268.00
2017-05-01T05:35:05.126Z,280.00
2017-05-01T05:36:06.414Z,288.00
2017-05-01T05:37:07.702Z,292.00
2017-05-01T05:38:08.993Z,300.00
2017-05-01T05:39:10.279Z,304.00
2017-05-01T05:40:11.568Z,308.00
2017-05-01T05:41:12.860Z,312.00
2017-05-01T05:42:14.146Z,312.00
2017-05-01T05:43:15.439Z,316.00
2017-05-01T05:44:16.728Z,316.00
2017-05-01T05:45:18.013Z,316.00
2017-05-01T05:46:19.305Z,320.00
2017-05-01T05:47:20.596Z,320.00
2017-05-01T05:48:21.884Z,324.00
2017-05-01T05:49:23.174Z,324.00
2017-05-01T05:50:24.469Z,328.00
2017-05-01T05:51:25.750Z,324.00
2017-05-01T05:52:27.052Z,332.00
2017-05-01T05:53:28.340Z,332.00
2017-05-01T05:54:29.631Z,328.00
2017-05-01T05:55:30.938Z,332.00
2017-05-01T05:56:32.225Z,332.00
2017-05-01T05:57:33.512Z,336.00
2017-05-01T05:58:34.801Z,340.00
2017-05-01T05:59:36.094Z,344.00
2017-05-01T06:00:37.391Z,348.00
2017-05-01T06:01:38.676Z,348.00
2017-05-01T06:02:39.962Z,356.00
2017-05-01T06:03:41.279Z,364.00
2017-05-01T06:04:42.567Z,376.00
2017-05-01T06:05:43.855Z,388.00
2017-05-01T06:06:45.142Z,400.00
2017-05-01T06:07:46.428Z,416.00
2017-05-01T06:08:47.716Z,416.00
2017-05-01T06:09:49.003Z,408.00
2017-05-01T06:10:50.296Z,392.00
2017-05-01T06:11:51.580Z,360.00
2017-05-01T06:12:52.870Z,332.00
2017-05-01T06:13:54.158Z,340.00
2017-05-01T06:14:55.449Z,360.00
2017-05-01T06:15:56.736Z,372.00
2017-05-01T06:16:58.025Z,384.00
2017-05-01T06:17:59.312Z,384.00
2017-05-01T06:19:00.600Z,368.00
2017-05-01T06:20:01.890Z,348.00
2017-05-01T06:21:03.179Z,332.00
2017-05-01T06:22:04.468Z,328.00
2017-05-01T06:23:05.756Z,328.00
2017-05-01T06:24:07.044Z,320.00
2017-05-01T06:25:08.335Z,320.00
2017-05-01T06:26:09.620Z,324.00
2017-05-01T06:27:10.909Z,324.00
2017-05-01T06:28:12.197Z,340.00
2017-05-01T06:29:13.491Z,348.00
2017-05-01T06:30:14.778Z,352.00
2017-05-01T06:31:16.066Z,352.00
2017-05-01T06:32:17.357Z,356.00
2017-05-01T06:33:18.673Z,368.00
2017-05-01T06:34:19.956Z,396.00
2017-05-01T06:35:21.245Z,424.00
2017-05-01T06:36:22.562Z,428.00
2017-05-01T06:37:23.852Z,432.00
2017-05-01T06:38:25.166Z,436.00
2017-05-01T06:39:26.432Z,444.00
2017-05-01T06:40:29.295Z,452.00
2017-05-01T06:41:29.784Z,456.00
2017-05-01T06:42:31.069Z,452.00
2017-05-01T06:43:32.364Z,460.00
2017-05-01T06:44:34.219Z,468.00
2017-05-01T06:45:35.378Z,472.00
2017-05-01T06:46:36.726Z,484.00
2017-05-01T06:47:38.012Z,488.00
2017-05-01T06:48:39.299Z,492.00
2017-05-01T06:49:40.589Z,504.00
2017-05-01T06:50:41.877Z,508.00
2017-05-01T06:51:43.165Z,496.00
2017-05-01T06:52:44.454Z,496.00
2017-05-01T06:53:45.739Z,496.00
2017-05-01T06:54:47.036Z,504.00
2017-05-01T06:55:48.323Z,520.00
2017-05-01T06:56:49.616Z,532.00
2017-05-01T06:57:50.971Z,544.00
2017-05-01T06:58:52.260Z,552.00
2017-05-01T06:59:53.548Z,552.00
2017-05-01T07:00:54.833Z,552.00
2017-05-01T07:01:56.120Z,552.00
2017-05-01T07:02:57.409Z,544.00
2017-05-01T07:03:58.698Z,536.00
2017-05-01T07:05:00.008Z,528.00
2017-05-01T07:06:01.316Z,520.00
2017-05-01T07:07:02.687Z,516.00
2017-05-01T07:08:03.998Z,508.00
2017-05-01T07:09:05.330Z,508.00
2017-05-01T07:10:06.804Z,500.00
2017-05-01T07:11:08.113Z,496.00
2017-05-01T07:12:09.412Z,484.00
2017-05-01T07:13:10.732Z,472.00
2017-05-01T07:14:12.058Z,464.00
2017-05-01T07:15:13.359Z,456.00
2017-05-01T07:16:14.657Z,452.00
2017-05-01T07:17:15.946Z,440.00
2017-05-01T07:18:17.240Z,436.00
2017-05-01T07:19:18.533Z,432.00
2017-05-01T07:20:19.897Z,424.00
2017-05-01T07:21:21.186Z,420.00
2017-05-01T07:22:22.474Z,408.00
2017-05-01T07:23:23.771Z,412.00
2017-05-01T07:24:25.082Z,420.00
2017-05-01T07:25:26.370Z,428.00
2017-05-01T07:26:28.756Z,436.00
2017-05-01T07:27:30.027Z,440.00
2017-05-01T07:28:31.318Z,436.00
2017-05-01T07:29:32.606Z,424.00
2017-05-01T07:30:33.895Z,412.00
2017-05-01T07:31:35.178Z,412.00
2017-05-01T07:32:36.471Z,408.00
2017-05-01T07:33:37.759Z,412.00
2017-05-01T07:34:39.050Z,412.00
2017-05-01T07:35:40.339Z,416.00
2017-05-01T07:36:41.656Z,428.00
2017-05-01T07:37:42.982Z,436.00
2017-05-01T07:38:44.271Z,444.00
2017-05-01T07:39:45.561Z,456.00
2017-05-01T07:40:47.217Z,464.00
2017-05-01T07:41:48.842Z,468.00
2017-05-01T07:42:50.177Z,468.00
2017-05-01T07:43:51.776Z,472.00
2017-05-01T07:44:53.495Z,472.00
2017-05-01T07:45:55.117Z,472.00
2017-05-01T07:46:56.710Z,472.00
2017-05-01T07:47:59.714Z,464.00
2017-05-01T07:49:01.273Z,460.00
2017-05-01T07:50:07.499Z,452.00
2017-05-01T07:51:09.103Z,448.00
2017-05-01T07:52:10.345Z,444.00
2017-05-01T07:53:11.677Z,444.00
2017-05-01T07:54:13.315Z,440.00
2017-05-01T07:55:14.980Z,440.00
2017-05-01T07:56:16.521Z,440.00
2017-05-01T07:57:18.189Z,448.00
2017-05-01T07:58:19.780Z,460.00
2017-05-01T07:59:21.289Z,476.00
2017-05-01T08:00:22.940Z,496.00
2017-05-01T08:01:24.551Z,504.00
2017-05-01T08:02:26.156Z,504.00
2017-05-01T08:03:27.793Z,492.00
2017-05-01T08:04:29.380Z,480.00
2017-05-01T08:05:30.967Z,468.00
2017-05-01T08:06:32.627Z,468.00
2017-05-01T08:07:34.150Z,480.00
2017-05-01T08:08:35.636Z,472.00
2017-05-01T08:09:37.204Z,484.00
2017-05-01T08:10:38.441Z,512.00
2017-05-01T08:11:40.067Z,528.00
2017-05-01T08:12:41.648Z,568.00
2017-05-01T08:13:43.261Z,612.00
2017-05-01T08:14:44.876Z,624.00
2017-05-01T08:15:46.497Z,636.00
2017-05-01T08:16:47.846Z,652.00
2017-05-01T08:17:49.476Z,656.00
2017-05-01T08:18:51.170Z,660.00
2017-05-01T08:19:52.769Z,652.00
2017-05-01T08:20:54.342Z,656.00
2017-05-01T08:21:55.950Z,672.00
2017-05-01T08:22:57.646Z,704.00
2017-05-01T08:23:59.142Z,772.00
2017-05-01T08:25:00.600Z,832.00
2017-05-01T08:26:02.194Z,868.00
2017-05-01T08:27:03.733Z,848.00
2017-05-01T08:28:05.010Z,832.00
2017-05-01T08:29:06.656Z,848.00
2017-05-01T08:30:08.078Z,828.00
2017-05-01T08:31:09.393Z,776.00
2017-05-01T08:32:11.041Z,684.00
2017-05-01T08:33:12.310Z,624.00
2017-05-01T08:34:13.881Z,616.00
2017-05-01T08:35:15.519Z,592.00
2017-05-01T08:36:17.107Z,544.00
2017-05-01T08:37:18.403Z,508.00
2017-05-01T08:38:20.027Z,504.00
2017-05-01T08:39:21.592Z,504.00
2017-05-01T08:40:23.242Z,508.00
2017-05-01T08:41:24.876Z,528.00
2017-05-01T08:42:26.569Z,548.00
2017-05-01T08:43:28.180Z,552.00
2017-05-01T08:44:29.824Z,556.00
2017-05-01T08:45:31.120Z,572.00
2017-05-01T08:46:32.615Z,592.00
2017-05-01T08:47:34.255Z,632.00
2017-05-01T08:48:35.781Z,668.00
2017-05-01T08:49:37.162Z,696.00
2017-05-01T08:50:38.833Z,712.00
2017-05-01T08:51:40.246Z,724.00
2017-05-01T08:52:41.865Z,752.00
2017-05-01T08:53:43.293Z,768.00
2017-05-01T08:54:44.814Z,764.00
2017-05-01T08:55:46.391Z,756.00
2017-05-01T08:56:47.661Z,768.00
2017-05-01T08:57:49.301Z,752.00
2017-05-01T08:58:50.968Z,728.00
2017-05-01T08:59:52.693Z,716.00
2017-05-01T09:00:54.302Z,712.00
2017-05-01T09:01:55.705Z,700.00
2017-05-01T09:02:56.969Z,676.00
2017-05-01T09:03:58.330Z,664.00
2017-05-01T09:04:59.961Z,692.00
2017-05-01T09:06:01.758Z,732.00
2017-05-01T09:07:03.348Z,776.00
2017-05-01T09:08:04.609Z,780.00
2017-05-01T09:09:06.070Z,784.00
2017-05-01T09:10:07.670Z,776.00
2017-05-01T09:11:09.461Z,776.00
2017-05-01T09:12:15.261Z,776.00
2017-05-01T09:13:16.493Z,788.00
2017-05-01T09:14:17.784Z,780.00
2017-05-01T09:15:19.074Z,788.00
2017-05-01T09:16:20.361Z,816.00
2017-05-01T09:17:21.650Z,836.00
2017-05-01T09:18:22.944Z,860.00
2017-05-01T09:19:24.231Z,864.00
2017-05-01T09:20:25.520Z,868.00
2017-05-01T09:21:26.811Z,884.00
2017-05-01T09:22:28.108Z,912.00
2017-05-01T09:23:29.399Z,944.00
2017-05-01T09:24:30.686Z,984.00
2017-05-01T09:25:31.976Z,1004.00
2017-05-01T09:26:33.782Z,1020.00
2017-05-01T09:27:35.067Z,1040.00
2017-05-01T09:28:40.016Z,1044.00
2017-05-01T09:29:43.896Z,1048.00
2017-05-01T09:30:45.184Z,1040.00
2017-05-01T09:31:46.472Z,1020.00
2017-05-01T09:32:47.765Z,1000.00
2017-05-01T09:33:49.052Z,988.00
2017-05-01T09:34:50.342Z,996.00
2017-05-01T09:35:51.631Z,996.00
2017-05-01T09:36:52.917Z,1008.00
2017-05-01T09:37:57.777Z,1032.00
2017-05-01T09:39:02.509Z,1068.00
2017-05-01T09:40:06.353Z,1092.00
2017-05-01T09:41:07.643Z,1108.00
2017-05-01T09:42:08.935Z,1108.00
2017-05-01T09:43:10.222Z,1104.00
2017-05-01T09:44:13.500Z,1116.00
2017-05-01T09:45:17.853Z,1092.00
2017-05-01T09:46:19.363Z,1084.00
2017-05-01T09:47:20.653Z,1088.00
2017-05-01T09:48:22.558Z,1108.00
2017-05-01T09:49:26.134Z,1128.00
2017-05-01T09:50:29.273Z,1156.00
2017-05-01T09:51:30.568Z,1180.00
2017-05-01T09:52:31.851Z,1200.00
2017-05-01T09:53:33.140Z,1188.00
2017-05-01T09:54:34.429Z,1184.00
2017-05-01T09:55:35.722Z,1164.00
2017-05-01T09:56:37.046Z,1160.00
2017-05-01T09:57:38.337Z,1168.00
2017-05-01T09:58:40.335Z,1184.00
2017-05-01T09:59:41.962Z,1216.00
2017-05-01T10:00:43.224Z,1252.00
2017-05-01T10:01:45.464Z,1292.00
2017-05-01T10:02:49.943Z,1328.00
2017-05-01T10:03:51.265Z,1364.00
2017-05-01T10:04:53.656Z,1392.00
2017-05-01T10:05:55.267Z,1408.00
2017-05-01T10:06:57.428Z,1424.00
2017-05-01T10:07:58.877Z,1436.00
2017-05-01T10:09:00.550Z,1440.00
2017-05-01T10:10:02.621Z,1432.00
2017-05-01T10:11:03.922Z,1408.00
2017-05-01T10:12:05.209Z,1372.00
2017-05-01T10:13:06.501Z,1332.00
2017-05-01T10:14:07.792Z,1308.00
2017-05-01T10:15:09.085Z,1292.00
2017-05-01T10:16:10.377Z,1268.00
2017-05-01T10:17:11.667Z,1244.00
2017-05-01T10:18:12.959Z,1224.00
2017-05-01T10:19:14.354Z,1176.00
2017-05-01T10:20:15.623Z,1060.00
2017-05-01T10:21:16.926Z,1028.00
2017-05-01T10:22:18.292Z,1072.00
2017-05-01T10:23:20.787Z,1204.00
2017-05-01T10:24:24.261Z,1300.00
2017-05-01T10:25:25.554Z,1336.00
2017-05-01T10:26:27.118Z,1344.00
2017-05-01T10:27:29.684Z,1336.00
2017-05-01T10:28:34.592Z,1324.00
2017-05-01T10:29:42.505Z,1268.00
2017-05-01T10:30:50.442Z,1168.00
2017-05-01T10:31:56.411Z,1108.00
2017-05-01T10:33:00.063Z,1136.00
2017-05-01T10:34:02.972Z,1224.00
2017-05-01T10:35:04.283Z,1332.00
2017-05-01T10:36:05.583Z,1404.00
2017-05-01T10:37:06.872Z,1456.00
2017-05-01T10:38:08.161Z,1476.00
2017-05-01T10:39:09.453Z,1484.00
2017-05-01T10:40:13.055Z,1416.00
2017-05-01T10:41:16.131Z,1148.00
2017-05-01T10:42:19.766Z,808.00
2017-05-01T13:29:28.575Z,944.00
2017-05-01T13:30:32.884Z,980.00
2017-05-01T13:31:35.539Z,1000.00
2017-05-01T13:32:36.865Z,1008.00
2017-05-01T13:33:38.199Z,848.00
2017-05-01T13:34:39.520Z,1060.00
2017-05-01T13:35:40.810Z,1052.00
2017-05-01T13:36:42.466Z,1024.00
2017-05-01T13:37:44.023Z,992.00
2017-05-01T13:38:45.305Z,964.00
2017-05-01T13:39:46.594Z,944.00
2017-05-01T13:40:47.935Z,932.00
2017-05-01T13:41:49.304Z,932.00
2017-05-01T13:42:50.610Z,932.00
2017-05-01T13:43:51.898Z,912.00
2017-05-01T13:44:53.186Z,888.00
2017-05-01T13:45:54.471Z,868.00
2017-05-01T13:46:55.773Z,860.00
2017-05-01T13:47:57.065Z,844.00
2017-05-01T13:48:58.351Z,824.00
2017-05-01T13:49:59.639Z,808.00
2017-05-01T13:51:00.931Z,780.00
2017-05-01T13:52:02.287Z,756.00
2017-05-01T13:53:03.581Z,740.00
2017-05-01T13:54:04.869Z,728.00
2017-05-01T13:55:06.202Z,708.00
2017-05-01T13:56:07.489Z,704.00
2017-05-01T13:57:08.776Z,704.00
2017-05-01T13:58:10.066Z,708.00
2017-05-01T13:59:11.354Z,712.00
2017-05-01T14:00:12.642Z,728.00
2017-05-01T14:01:13.956Z,748.00
2017-05-01T14:02:15.245Z,768.00
2017-05-01T14:03:16.534Z,780.00
2017-05-01T14:04:17.826Z,792.00
2017-05-01T14:05:19.135Z,808.00
2017-05-01T14:06:20.420Z,816.00
2017-05-01T14:07:21.709Z,824.00
2017-05-01T14:08:22.996Z,828.00
2017-05-01T14:09:24.284Z,828.00
2017-05-01T14:10:25.572Z,832.00
2017-05-01T14:11:26.860Z,832.00
2017-05-01T14:12:28.151Z,836.00
2017-05-01T14:13:29.440Z,836.00
2017-05-01T14:14:30.730Z,844.00
2017-05-01T14:15:32.017Z,856.00
2017-05-01T14:16:33.306Z,872.00
2017-05-01T14:17:34.600Z,884.00
2017-05-01T14:18:35.887Z,896.00
2017-05-01T14:19:37.176Z,908.00
2017-05-01T14:20:38.466Z,916.00
2017-05-01T14:21:39.752Z,920.00
2017-05-01T14:22:41.046Z,920.00
2017-05-01T14:23:42.330Z,920.00
2017-05-01T14:24:43.711Z,916.00
2017-05-01T14:25:44.999Z,912.00
2017-05-01T14:26:46.288Z,904.00
2017-05-01T14:27:47.573Z,896.00
2017-05-01T14:28:48.868Z,892.00
2017-05-01T14:29:50.156Z,888.00
2017-05-01T14:30:51.444Z,884.00
2017-05-01T14:31:52.733Z,888.00
2017-05-01T14:32:54.023Z,888.00
2017-05-01T14:33:55.309Z,892.00
2017-05-01T14:34:56.597Z,900.00
2017-05-01T14:35:57.891Z,904.00
2017-05-01T14:36:59.183Z,908.00
2017-05-01T14:38:00.468Z,916.00
2017-05-01T14:39:01.770Z,916.00
2017-05-01T14:40:03.049Z,912.00
2017-05-01T14:41:04.339Z,912.00
2017-05-01T14:42:05.627Z,908.00
2017-05-01T14:43:06.916Z,900.00
2017-05-01T14:44:08.204Z,896.00
2017-05-01T14:45:09.496Z,892.00
2017-05-01T14:46:10.785Z,884.00
2017-05-01T14:47:12.074Z,880.00
2017-05-01T14:48:13.361Z,872.00
2017-05-01T14:49:14.649Z,864.00
2017-05-01T14:50:15.946Z,864.00
2017-05-01T14:51:17.226Z,852.00
2017-05-01T14:52:18.536Z,852.00
2017-05-01T14:53:19.904Z,844.00
2017-05-01T14:54:21.187Z,844.00
2017-05-01T14:55:22.474Z,836.00
2017-05-01T14:56:23.773Z,824.00
2017-05-01T14:57:25.217Z,812.00
2017-05-01T14:58:26.510Z,796.00
2017-05-01T14:59:27.797Z,780.00
2017-05-01T15:00:29.084Z,760.00
2017-05-01T15:01:30.372Z,740.00
2017-05-01T15:02:31.678Z,724.00
2017-05-01T15:03:32.965Z,712.00
2017-05-01T15:04:34.265Z,700.00
2017-05-01T15:05:35.554Z,692.00
2017-05-01T15:06:36.842Z,688.00
2017-05-01T15:07:38.130Z,696.00
2017-05-01T15:08:39.465Z,708.00
2017-05-01T15:09:40.752Z,720.00
2017-05-01T15:10:42.044Z,724.00
2017-05-01T15:11:43.330Z,736.00
2017-05-01T15:12:44.620Z,744.00
2017-05-01T15:13:45.909Z,756.00
2017-05-01T15:14:47.199Z,764.00
2017-05-01T15:15:48.487Z,772.00
2017-05-01T15:16:49.778Z,784.00
2017-05-01T15:17:51.111Z,796.00
2017-05-01T15:18:52.393Z,816.00
2017-05-01T15:19:53.675Z,828.00
2017-05-01T15:20:54.998Z,848.00
2017-05-01T15:21:56.269Z,864.00
2017-05-01T15:22:57.564Z,880.00
2017-05-01T15:23:58.849Z,892.00
2017-05-01T15:25:00.141Z,896.00
2017-05-01T15:26:01.430Z,908.00
2017-05-01T15:27:02.715Z,912.00
2017-05-01T15:28:04.005Z,920.00
2017-05-01T15:29:05.293Z,924.00
2017-05-01T15:30:06.580Z,932.00
2017-05-01T15:31:07.869Z,944.00
2017-05-01T15:32:09.159Z,960.00
2017-05-01T15:33:10.446Z,964.00
2017-05-01T15:34:11.773Z,968.00
2017-05-01T15:35:13.067Z,968.00
2017-05-01T15:36:14.350Z,972.00
2017-05-01T15:37:15.638Z,988.00
2017-05-01T15:38:16.945Z,996.00
2017-05-01T15:39:18.238Z,1000.00
2017-05-01T15:40:19.523Z,1008.00
2017-05-01T15:41:20.814Z,1004.00
2017-05-01T15:42:22.103Z,1004.00
2017-05-01T15:43:23.394Z,1016.00
2017-05-01T15:44:24.684Z,1036.00
2017-05-01T15:45:25.985Z,1048.00
2017-05-01T15:46:27.280Z,1068.00